createdAt,value
2019-03-29T00:02:03.610Z,5.70
2019-03-29T00:04:33.450Z,6.13
2019-03-29T00:07:04.008Z,6.17
2019-03-29T00:09:34.094Z,5.90
2019-03-29T00:12:04.919Z,5.80
2019-03-29T00:14:34.886Z,5.63
2019-03-29T00:17:04.714Z,5.77
2019-03-29T00:19:34.554Z,5.43
2019-03-29T00:22:05.108Z,5.53
2019-03-29T00:24:35.130Z,6.03
2019-03-29T00:27:05.018Z,5.67
2019-03-29T00:29:34.839Z,5.63
2019-03-29T00:32:05.929Z,4.90
2019-03-29T00:34:35.869Z,5.57
2019-03-29T00:37:05.719Z,6.83
2019-03-29T00:39:35.560Z,5.30
2019-03-29T00:42:05.410Z,5.20
2019-03-29T00:44:35.231Z,5.17
2019-03-29T00:47:05.074Z,5.40
2019-03-29T00:49:34.946Z,5.47
2019-03-29T00:52:04.804Z,5.97
2019-03-29T00:54:34.646Z,5.47
2019-03-29T00:57:05.011Z,5.97
2019-03-29T00:59:35.105Z,5.00
2019-03-29T01:02:04.990Z,5.57
2019-03-29T01:04:34.839Z,5.60
2019-03-29T01:07:04.962Z,6.10
2019-03-29T01:09:35.148Z,5.67
2019-03-29T01:12:05.011Z,5.70
2019-03-29T01:14:34.854Z,5.53
2019-03-29T01:17:04.648Z,5.80
2019-03-29T01:19:34.511Z,5.60
2019-03-29T01:22:05.974Z,5.40
2019-03-29T01:24:35.857Z,5.63
2019-03-29T01:27:05.690Z,5.63
2019-03-29T01:29:35.544Z,5.20
2019-03-29T01:32:05.351Z,5.67
2019-03-29T01:34:35.189Z,5.53
2019-03-29T01:37:05.033Z,5.60
2019-03-29T01:39:34.861Z,5.53
2019-03-29T01:42:04.682Z,4.90
2019-03-29T01:44:34.491Z,5.60
2019-03-29T01:47:04.375Z,5.50
2019-03-29T01:49:34.549Z,5.50
2019-03-29T01:52:04.401Z,5.80
2019-03-29T01:54:34.276Z,4.80
2019-03-29T01:57:04.102Z,5.33
2019-03-29T01:59:33.992Z,6.07
2019-03-29T02:02:03.825Z,5.90
2019-03-29T02:04:34.306Z,5.80
2019-03-29T02:07:04.913Z,5.77
2019-03-29T02:09:34.770Z,6.63
2019-03-29T02:12:04.870Z,6.30
2019-03-29T02:14:34.723Z,6.70
2019-03-29T02:17:04.580Z,6.03
2019-03-29T02:19:34.425Z,6.43
2019-03-29T02:22:04.284Z,7.30
2019-03-29T02:24:34.161Z,6.93
2019-03-29T02:27:04.805Z,6.70
2019-03-29T02:29:34.839Z,7.20
2019-03-29T02:32:04.683Z,6.47
2019-03-29T02:34:34.536Z,6.53
2019-03-29T02:37:04.353Z,7.67
2019-03-29T02:39:34.201Z,7.20
2019-03-29T02:42:04.022Z,7.10
2019-03-29T02:44:34.815Z,7.70
2019-03-29T02:47:04.886Z,8.00
2019-03-29T02:49:35.099Z,8.03
2019-03-29T02:52:05.036Z,7.83
2019-03-29T02:54:34.887Z,8.30
2019-03-29T02:57:04.707Z,7.53
2019-03-29T02:59:34.579Z,7.87
2019-03-29T03:02:04.542Z,8.10
2019-03-29T03:04:34.403Z,8.53
2019-03-29T03:07:04.253Z,7.87
2019-03-29T03:09:34.111Z,8.07
2019-03-29T03:12:03.924Z,8.40
2019-03-29T03:14:33.761Z,8.43
2019-03-29T03:17:03.596Z,8.37
2019-03-29T03:19:33.420Z,8.27
2019-03-29T03:22:03.260Z,9.40
2019-03-29T03:24:33.149Z,9.03
2019-03-29T03:27:02.963Z,8.13
2019-03-29T03:29:32.815Z,9.20
2019-03-29T03:32:02.619Z,8.83
2019-03-29T03:34:32.527Z,8.90
2019-03-29T03:37:02.370Z,8.87
2019-03-29T03:39:32.772Z,8.50
2019-03-29T03:42:02.668Z,8.60
2019-03-29T03:44:32.541Z,9.00
2019-03-29T03:47:02.357Z,9.47
2019-03-29T03:49:32.248Z,8.40
2019-03-29T03:52:02.149Z,8.73
2019-03-29T03:54:31.984Z,9.10
2019-03-29T03:57:01.834Z,8.87
2019-03-29T03:59:32.587Z,9.43
2019-03-29T04:02:02.409Z,9.20
2019-03-29T04:04:32.298Z,8.83
2019-03-29T04:07:02.131Z,8.03
2019-03-29T04:09:48.426Z,8.90
2019-03-29T04:12:03.464Z,9.17
2019-03-29T04:14:33.310Z,10.43
2019-03-29T04:17:03.164Z,9.03
2019-03-29T04:19:33.031Z,8.87
2019-03-29T04:22:02.854Z,9.57
2019-03-29T04:24:32.724Z,8.90
2019-03-29T04:27:02.537Z,8.57
2019-03-29T04:29:32.458Z,9.10
2019-03-29T04:32:02.295Z,8.70
2019-03-29T04:34:32.142Z,8.33
2019-03-29T04:37:01.946Z,8.83
2019-03-29T04:39:31.838Z,8.03
2019-03-29T04:42:01.647Z,7.93
2019-03-29T04:44:31.505Z,7.80
2019-03-29T04:47:01.396Z,7.47
2019-03-29T04:49:31.240Z,7.90
2019-03-29T04:52:01.107Z,8.17
2019-03-29T04:54:30.930Z,8.67
2019-03-29T04:57:00.785Z,7.53
2019-03-29T04:59:30.664Z,7.40
2019-03-29T05:02:00.514Z,7.30
2019-03-29T05:04:30.375Z,8.10
2019-03-29T05:07:00.156Z,7.87
2019-03-29T05:09:30.002Z,7.60
2019-03-29T05:11:59.824Z,7.30
2019-03-29T05:14:29.835Z,8.17
2019-03-29T05:16:59.704Z,7.47
2019-03-29T05:19:29.665Z,7.67
2019-03-29T05:21:59.495Z,7.73
2019-03-29T05:24:29.384Z,6.60
2019-03-29T05:26:59.228Z,7.03
2019-03-29T05:29:29.140Z,6.40
2019-03-29T05:31:59.039Z,6.43
2019-03-29T05:34:28.941Z,7.43
2019-03-29T05:36:58.763Z,6.87
2019-03-29T05:39:28.622Z,7.27
2019-03-29T05:41:58.499Z,7.13
2019-03-29T05:44:28.367Z,6.37
2019-03-29T05:46:58.216Z,6.50
2019-03-29T05:49:28.045Z,6.07
2019-03-29T05:51:57.936Z,6.60
2019-03-29T05:54:27.811Z,5.83
2019-03-29T05:56:57.640Z,5.97
2019-03-29T05:59:27.512Z,5.93
2019-03-29T06:01:57.356Z,5.67
2019-03-29T06:04:27.257Z,5.87
2019-03-29T06:06:57.094Z,5.70
2019-03-29T06:09:26.917Z,5.77
2019-03-29T06:11:56.781Z,6.10
2019-03-29T06:14:26.681Z,6.37
2019-03-29T06:16:56.483Z,6.83
2019-03-29T06:19:26.321Z,6.57
2019-03-29T06:21:56.212Z,6.20
2019-03-29T06:24:27.033Z,5.60
2019-03-29T06:26:57.693Z,6.27
2019-03-29T06:29:28.332Z,6.20
2019-03-29T06:31:58.925Z,6.23
2019-03-29T06:34:29.555Z,6.07
2019-03-29T06:37:00.774Z,6.93
2019-03-29T06:39:31.382Z,5.40
2019-03-29T06:42:01.975Z,6.00
2019-03-29T06:44:32.620Z,5.90
2019-03-29T06:47:03.240Z,6.30
2019-03-29T06:49:33.833Z,6.10
2019-03-29T06:52:04.417Z,5.50
2019-03-29T06:54:35.057Z,6.23
2019-03-29T06:57:05.690Z,6.00
2019-03-29T06:59:36.281Z,5.57
2019-03-29T07:02:06.945Z,6.07
2019-03-29T07:04:37.665Z,6.00
2019-03-29T07:07:08.507Z,6.17
2019-03-29T07:09:39.115Z,5.60
2019-03-29T07:12:09.712Z,5.70
2019-03-29T07:14:40.349Z,5.63
2019-03-29T07:17:10.948Z,6.77
2019-03-29T07:19:41.592Z,5.83
2019-03-29T07:22:12.173Z,6.30
2019-03-29T07:24:42.854Z,6.50
2019-03-29T07:27:15.131Z,6.67
2019-03-29T07:29:45.838Z,9.75
2019-03-29T07:32:16.465Z,8.00
2019-03-29T07:34:49.126Z,7.60
2019-03-29T07:37:19.359Z,8.77
2019-03-29T07:39:49.972Z,8.03
2019-03-29T07:42:20.669Z,9.13
2019-03-29T07:44:51.283Z,8.80
2019-03-29T07:47:21.939Z,8.53
2019-03-29T07:49:52.538Z,9.23
2019-03-29T07:52:23.173Z,8.90
2019-03-29T07:54:53.855Z,9.03
2019-03-29T07:57:24.491Z,9.60
2019-03-29T07:59:55.133Z,9.53
2019-03-29T08:02:25.788Z,9.00
2019-03-29T08:04:56.370Z,8.50
2019-03-29T08:07:28.124Z,8.23
2019-03-29T08:09:59.364Z,8.10
2019-03-29T08:12:30.057Z,9.47
2019-03-29T08:15:00.605Z,8.30
2019-03-29T08:17:31.207Z,7.63
2019-03-29T08:20:24.871Z,8.00
2019-03-29T08:22:45.015Z,7.93
2019-03-29T08:25:15.635Z,8.33
2019-03-29T08:27:46.307Z,8.27
2019-03-29T08:30:16.907Z,8.10
2019-03-29T08:32:47.541Z,8.03
2019-03-29T08:35:18.175Z,7.53
2019-03-29T08:37:48.789Z,8.03
2019-03-29T08:40:19.636Z,8.50
2019-03-29T08:42:50.312Z,7.93
2019-03-29T08:45:20.908Z,7.40
2019-03-29T08:47:51.567Z,7.93
2019-03-29T08:50:22.173Z,7.30
2019-03-29T08:52:52.837Z,7.73
2019-03-29T08:55:23.467Z,7.30
2019-03-29T08:57:54.132Z,7.60
2019-03-29T09:00:34.511Z,7.70
2019-03-29T09:03:05.306Z,7.87
2019-03-29T09:05:38.977Z,7.70
2019-03-29T09:08:08.243Z,7.87
2019-03-29T09:10:38.954Z,8.77
2019-03-29T09:13:09.573Z,8.03
2019-03-29T09:15:40.180Z,8.20
2019-03-29T09:18:10.816Z,8.07
2019-03-29T09:20:41.591Z,7.93
2019-03-29T09:23:12.202Z,7.93
2019-03-29T09:25:42.852Z,8.10
2019-03-29T09:28:14.432Z,7.47
2019-03-29T09:30:45.030Z,7.07
2019-03-29T09:33:15.654Z,6.37
2019-03-29T09:35:46.264Z,7.47
2019-03-29T09:38:17.084Z,6.50
2019-03-29T09:40:57.695Z,6.90
2019-03-29T09:43:20.096Z,6.00
2019-03-29T09:45:50.692Z,6.60
2019-03-29T09:48:21.330Z,6.87
2019-03-29T09:50:51.927Z,7.60
2019-03-29T09:53:22.572Z,5.93
2019-03-29T09:55:53.614Z,7.13
2019-03-29T09:58:24.407Z,7.42
2019-03-29T10:00:55.232Z,8.50
2019-03-29T10:03:25.869Z,7.53
2019-03-29T10:05:56.480Z,8.10
2019-03-29T10:08:27.086Z,7.70
2019-03-29T10:10:57.755Z,7.77
2019-03-29T10:13:28.368Z,7.73
2019-03-29T10:15:58.984Z,7.20
2019-03-29T10:18:29.681Z,6.97
2019-03-29T10:21:00.322Z,6.50
2019-03-29T10:23:30.973Z,7.03
2019-03-29T10:26:01.628Z,6.93
2019-03-29T10:28:32.238Z,7.53
2019-03-29T10:31:02.844Z,7.33
2019-03-29T10:33:33.449Z,6.70
2019-03-29T10:36:04.081Z,7.13
2019-03-29T10:38:34.903Z,7.73
2019-03-29T10:41:05.727Z,6.53
2019-03-29T10:43:36.334Z,6.50
2019-03-29T10:46:07.263Z,6.57
2019-03-29T10:48:38.176Z,6.93
2019-03-29T10:51:09.104Z,6.73
2019-03-29T10:53:40.059Z,6.47
2019-03-29T10:56:10.983Z,6.37
2019-03-29T10:58:44.836Z,7.17
2019-03-29T11:01:14.561Z,6.43
2019-03-29T11:03:45.421Z,5.87
2019-03-29T11:06:16.503Z,6.77
2019-03-29T11:08:47.569Z,6.90
2019-03-29T11:11:18.412Z,6.80
2019-03-29T11:13:49.331Z,7.43
2019-03-29T11:16:20.396Z,6.30
2019-03-29T11:18:51.357Z,6.13
2019-03-29T11:21:22.214Z,8.00
2019-03-29T11:23:53.212Z,6.87
2019-03-29T11:26:24.090Z,6.53
2019-03-29T11:28:54.946Z,6.93
2019-03-29T11:31:25.790Z,6.60
2019-03-29T11:34:07.009Z,6.73
2019-03-29T11:36:37.643Z,6.63
2019-03-29T11:39:27.767Z,7.00
2019-03-29T11:42:03.325Z,6.80
2019-03-29T11:44:32.473Z,6.83
2019-03-29T11:47:03.057Z,6.73
2019-03-29T11:49:34.635Z,7.57
2019-03-29T11:52:05.353Z,7.80
2019-03-29T11:54:35.903Z,7.23
2019-03-29T11:57:06.501Z,6.80
2019-03-29T11:59:40.003Z,6.97
2019-03-29T12:02:09.479Z,7.03
2019-03-29T12:04:40.061Z,7.93
2019-03-29T12:07:10.798Z,6.77
2019-03-29T12:09:41.390Z,7.37
2019-03-29T12:12:12.035Z,7.20
2019-03-29T12:14:42.639Z,7.23
2019-03-29T12:17:13.309Z,6.90
2019-03-29T12:19:43.877Z,7.10
2019-03-29T12:22:14.469Z,7.03
2019-03-29T12:24:45.054Z,6.50
2019-03-29T12:27:15.657Z,6.77
2019-03-29T12:29:46.254Z,7.30
2019-03-29T12:32:16.860Z,7.20
2019-03-29T12:34:47.491Z,7.50
2019-03-29T12:37:18.107Z,6.00
2019-03-29T12:39:48.663Z,6.90
2019-03-29T12:42:19.311Z,6.37
2019-03-29T12:44:49.960Z,6.77
2019-03-29T12:47:20.779Z,7.17
2019-03-29T12:49:51.317Z,7.33
2019-03-29T12:52:21.907Z,6.70
2019-03-29T12:54:52.525Z,7.40
2019-03-29T12:57:23.158Z,6.77
2019-03-29T12:59:53.772Z,7.10
2019-03-29T13:02:24.391Z,6.83
2019-03-29T13:04:54.989Z,5.93
2019-03-29T13:07:25.598Z,6.23
2019-03-29T13:09:56.219Z,6.83
2019-03-29T13:12:26.833Z,7.17
2019-03-29T13:14:57.430Z,6.87
2019-03-29T13:17:28.631Z,6.17
2019-03-29T13:19:59.291Z,6.70
2019-03-29T13:22:29.928Z,6.40
2019-03-29T13:25:00.516Z,6.37
2019-03-29T13:27:31.113Z,6.77
2019-03-29T13:30:01.704Z,6.97
2019-03-29T13:32:33.620Z,6.60
2019-03-29T13:35:04.884Z,6.00
2019-03-29T13:37:41.220Z,6.13
2019-03-29T13:40:11.920Z,6.40
2019-03-29T13:42:42.559Z,6.93
2019-03-29T13:45:13.226Z,6.63
2019-03-29T13:47:43.795Z,6.13
2019-03-29T13:50:14.431Z,6.37
2019-03-29T13:52:45.007Z,6.50
2019-03-29T13:55:15.629Z,6.43
2019-03-29T13:57:46.196Z,6.43
2019-03-29T14:00:17.009Z,6.13
2019-03-29T14:02:47.605Z,6.23
2019-03-29T14:05:18.163Z,6.63
2019-03-29T14:07:48.766Z,6.70
2019-03-29T14:10:19.454Z,6.40
2019-03-29T14:12:50.072Z,6.30
2019-03-29T14:15:20.667Z,6.57
2019-03-29T14:17:51.287Z,6.20
2019-03-29T14:20:32.806Z,6.03
2019-03-29T14:23:04.383Z,5.43
2019-03-29T14:25:34.943Z,6.10
2019-03-29T14:28:05.882Z,6.10
2019-03-29T14:30:36.436Z,5.30
2019-03-29T14:33:07.060Z,6.37
2019-03-29T14:35:37.626Z,5.90
2019-03-29T14:38:08.220Z,5.70
2019-03-29T14:40:38.806Z,6.43
2019-03-29T14:43:09.435Z,6.97
2019-03-29T14:45:40.013Z,6.50
2019-03-29T14:48:10.605Z,6.00
2019-03-29T14:50:41.196Z,6.40
2019-03-29T14:53:11.834Z,6.03
2019-03-29T14:55:42.430Z,6.43
2019-03-29T14:58:12.980Z,6.03
2019-03-29T15:00:48.274Z,5.70
2019-03-29T15:03:16.784Z,6.47
2019-03-29T15:05:47.387Z,6.87
2019-03-29T15:08:17.984Z,6.60
2019-03-29T15:10:48.589Z,6.60
2019-03-29T15:13:19.183Z,6.83
2019-03-29T15:15:53.210Z,6.50
2019-03-29T15:18:22.077Z,7.13
2019-03-29T15:20:54.181Z,6.90
2019-03-29T15:23:24.967Z,6.90
2019-03-29T15:25:55.552Z,6.70
2019-03-29T15:28:26.132Z,7.07
2019-03-29T15:30:59.026Z,6.23
2019-03-29T15:33:29.697Z,6.47
2019-03-29T15:36:00.340Z,7.43
2019-03-29T15:38:31.294Z,7.23
2019-03-29T15:41:01.949Z,7.10
2019-03-29T15:43:32.538Z,6.70
2019-03-29T15:46:03.162Z,6.50
2019-03-29T15:48:33.742Z,6.93
2019-03-29T15:51:04.336Z,6.77
2019-03-29T15:53:34.918Z,7.47
2019-03-29T15:56:05.503Z,7.73
2019-03-29T15:58:36.114Z,8.23
2019-03-29T16:01:06.664Z,8.03
2019-03-29T16:03:37.274Z,7.33
2019-03-29T16:06:07.843Z,7.17
2019-03-29T16:08:38.431Z,8.03
2019-03-29T16:11:09.368Z,8.37
2019-03-29T16:13:41.325Z,7.27
2019-03-29T16:16:11.963Z,7.50
2019-03-29T16:18:42.619Z,7.57
2019-03-29T16:21:13.187Z,7.73
2019-03-29T16:23:43.813Z,8.17
2019-03-29T16:26:14.357Z,7.83
2019-03-29T16:28:45.057Z,8.23
2019-03-29T16:31:15.659Z,7.53
2019-03-29T16:33:46.241Z,7.43
2019-03-29T16:36:16.811Z,8.03
2019-03-29T16:38:47.398Z,7.53
2019-03-29T16:41:17.978Z,7.77
2019-03-29T16:43:48.588Z,7.80
2019-03-29T16:46:19.175Z,8.77
2019-03-29T16:48:49.777Z,7.87
2019-03-29T16:51:20.365Z,8.20
2019-03-29T16:53:50.991Z,8.10
2019-03-29T16:56:21.577Z,7.20
2019-03-29T16:58:52.180Z,8.53
2019-03-29T17:01:22.748Z,8.23
2019-03-29T17:03:53.353Z,8.80
2019-03-29T17:06:23.928Z,8.30
2019-03-29T17:08:54.530Z,8.07
2019-03-29T17:11:25.101Z,7.23
2019-03-29T17:13:55.735Z,8.23
2019-03-29T17:16:30.648Z,8.90
2019-03-29T17:18:58.626Z,8.37
2019-03-29T17:21:29.185Z,8.33
2019-03-29T17:23:59.823Z,8.87
2019-03-29T17:26:30.364Z,8.23
2019-03-29T17:29:01.369Z,7.80
2019-03-29T17:31:31.933Z,8.50
2019-03-29T17:34:02.587Z,7.37
2019-03-29T17:36:33.157Z,8.57
2019-03-29T17:39:05.098Z,7.83
2019-03-29T17:41:35.756Z,7.60
2019-03-29T17:44:06.343Z,7.90
2019-03-29T17:46:36.956Z,7.43
2019-03-29T17:49:07.596Z,7.57
2019-03-29T17:51:38.265Z,6.77
2019-03-29T17:54:08.802Z,7.27
2019-03-29T17:56:39.432Z,7.17
2019-03-29T17:59:09.967Z,6.77
2019-03-29T18:01:40.584Z,7.00
2019-03-29T18:04:11.213Z,8.03
2019-03-29T18:06:41.792Z,6.97
2019-03-29T18:09:12.343Z,7.57
2019-03-29T18:11:42.994Z,7.17
2019-03-29T18:14:13.568Z,6.97
2019-03-29T18:16:44.197Z,7.83
2019-03-29T18:19:14.769Z,6.83
2019-03-29T18:21:45.388Z,7.63
2019-03-29T18:24:15.963Z,7.30
2019-03-29T18:26:46.584Z,7.33
2019-03-29T18:29:17.168Z,7.93
2019-03-29T18:31:47.782Z,7.70
2019-03-29T18:34:18.334Z,7.70
2019-03-29T18:36:49.653Z,7.33
2019-03-29T18:39:20.220Z,7.63
2019-03-29T18:41:50.823Z,7.83
2019-03-29T18:44:21.392Z,7.77
2019-03-29T18:46:51.990Z,8.20
2019-03-29T18:49:22.608Z,8.00
2019-03-29T18:51:53.254Z,8.73
2019-03-29T18:54:23.837Z,8.30
2019-03-29T18:56:54.469Z,8.03
2019-03-29T18:59:25.052Z,8.13
2019-03-29T19:01:55.674Z,9.17
2019-03-29T19:04:26.256Z,8.83
2019-03-29T19:06:57.007Z,9.03
2019-03-29T19:09:27.571Z,8.50
2019-03-29T19:11:58.181Z,8.23
2019-03-29T19:14:28.759Z,10.67
2019-03-29T19:16:59.889Z,11.13
2019-03-29T19:19:30.471Z,14.03
2019-03-29T19:22:05.984Z,12.40
2019-03-29T19:24:36.564Z,7.60
2019-03-29T19:27:07.162Z,7.83
2019-03-29T19:29:37.753Z,7.70
2019-03-29T19:32:08.364Z,7.77
2019-03-29T19:34:38.938Z,8.40
2019-03-29T19:37:09.529Z,11.20
2019-03-29T19:39:40.118Z,12.70
2019-03-29T19:42:10.738Z,10.87
2019-03-29T19:44:41.324Z,10.67
2019-03-29T19:47:13.684Z,9.63
2019-03-29T19:49:44.283Z,10.10
2019-03-29T19:52:14.900Z,7.97
2019-03-29T19:54:45.479Z,7.37
2019-03-29T19:57:16.099Z,7.50
2019-03-29T19:59:48.702Z,6.57
2019-03-29T20:02:19.109Z,7.17
2019-03-29T20:04:49.658Z,6.57
2019-03-29T20:07:20.539Z,6.73
2019-03-29T20:09:51.095Z,6.77
2019-03-29T20:12:24.956Z,6.33
2019-03-29T20:14:54.145Z,5.97
2019-03-29T20:17:27.767Z,5.80
2019-03-29T20:19:57.119Z,5.90
2019-03-29T20:22:29.886Z,6.40
2019-03-29T20:25:00.460Z,6.17
2019-03-29T20:27:31.070Z,6.13
2019-03-29T20:30:01.647Z,6.37
2019-03-29T20:32:32.268Z,6.50
2019-03-29T20:35:02.855Z,6.40
2019-03-29T20:37:33.490Z,6.97
2019-03-29T20:40:04.448Z,6.60
2019-03-29T20:42:35.082Z,6.20
2019-03-29T20:45:06.016Z,7.50
2019-03-29T20:47:42.335Z,7.90
2019-03-29T20:50:09.042Z,9.57
2019-03-29T20:52:39.653Z,10.60
2019-03-29T20:55:10.339Z,10.77
2019-03-29T20:57:40.969Z,11.03
2019-03-29T21:00:12.672Z,10.93
2019-03-29T21:02:43.515Z,12.30
2019-03-29T21:05:14.119Z,12.80
2019-03-29T21:07:44.735Z,10.20
2019-03-29T21:10:18.132Z,10.10
2019-03-29T21:12:48.782Z,9.10
2019-03-29T21:15:21.047Z,10.90
2019-03-29T21:17:57.530Z,12.93
2019-03-29T21:20:24.050Z,8.87
2019-03-29T21:22:54.648Z,8.07
2019-03-29T21:25:25.288Z,6.70
2019-03-29T21:27:55.937Z,6.77
2019-03-29T21:30:26.589Z,6.90
2019-03-29T21:32:57.214Z,7.17
2019-03-29T21:35:27.981Z,8.03
2019-03-29T21:37:59.025Z,7.73
2019-03-29T21:40:29.782Z,7.33
2019-03-29T21:43:01.939Z,8.17
2019-03-29T21:45:32.901Z,7.17
2019-03-29T21:48:25.529Z,6.83
2019-03-29T21:50:35.986Z,6.83
2019-03-29T21:53:06.724Z,7.67
2019-03-29T21:55:37.517Z,6.93
2019-03-29T21:58:08.239Z,7.37
2019-03-29T22:00:39.119Z,7.93
2019-03-29T22:03:09.710Z,7.17
2019-03-29T22:05:40.400Z,6.83
2019-03-29T22:08:11.275Z,6.90
2019-03-29T22:10:42.606Z,6.63
2019-03-29T22:13:13.432Z,7.43
2019-03-29T22:15:44.488Z,7.43
2019-03-29T22:18:15.280Z,7.07
2019-03-29T22:20:46.078Z,7.00
2019-03-29T22:23:16.971Z,6.80
2019-03-29T22:25:47.832Z,7.83
2019-03-29T22:28:18.683Z,7.50
2019-03-29T22:30:49.529Z,7.57
2019-03-29T22:33:20.239Z,7.40
2019-03-29T22:35:51.050Z,6.43
2019-03-29T22:38:21.814Z,7.13
2019-03-29T22:40:52.598Z,7.40
2019-03-29T22:43:23.392Z,7.13
2019-03-29T22:45:54.091Z,7.53
2019-03-29T22:48:24.798Z,7.67
2019-03-29T22:50:55.589Z,7.67
2019-03-29T22:53:26.289Z,7.60
2019-03-29T22:55:57.009Z,7.30
2019-03-29T22:58:28.611Z,8.73
2019-03-29T23:00:59.752Z,13.53
2019-03-29T23:03:30.552Z,11.67
2019-03-29T23:06:01.875Z,10.43
2019-03-29T23:08:32.597Z,11.13
2019-03-29T23:11:03.375Z,14.03
2019-03-29T23:13:34.198Z,14.70
2019-03-29T23:16:04.952Z,12.10
2019-03-29T23:18:35.808Z,11.77
2019-03-29T23:21:09.313Z,11.97
2019-03-29T23:23:40.110Z,10.37
2019-03-29T23:26:10.900Z,10.87
2019-03-29T23:28:41.699Z,10.03
2019-03-29T23:31:12.493Z,10.77
2019-03-29T23:33:43.191Z,10.03
2019-03-29T23:36:13.960Z,9.03
2019-03-29T23:38:44.675Z,8.80
2019-03-29T23:41:15.379Z,8.30
2019-03-29T23:43:46.123Z,8.07
2019-03-29T23:46:16.963Z,8.23
2019-03-29T23:48:47.751Z,7.93
2019-03-29T23:51:18.605Z,7.90
2019-03-29T23:53:49.291Z,7.90
2019-03-29T23:56:20.158Z,7.97
2019-03-29T23:58:50.985Z,7.87
